Terminal Aerodrome Forecast
Issued by NWS Wilmington, OH

Current Version | Previous Version | Graphics & Text | Print | Product List | Glossary Off
Versions: 1 2 3 4 5 6 7 8 9 10 11 12 13 14 15 16 17 18 19 20 21 22 23 24 25 26

000
FTUS41 KILN 141000 AAC
TAFCMH
TAF AMD
KCMH 141011Z 1410/1506 24004KT 5SM BR VCSH OVC005
     FM141100 24004KT 4SM -SHRA VCTS BKN025CB
     FM141400 22008KT P6SM SCT035 BKN100
     FM142000 23010KT P6SM VCSH BKN040
     FM150000 24010KT P6SM SCT040=

USA.gov is the U.S. government's official web portal to all federal, state and local government web resources and services.